Portada
METAR-TAF:

METAR-TAF

Aeroports :

Salalah, Oman

latitud: 17-02N, longitud: 054-05E, altitud: 20 m

Observació

L'informe es va fer fa 1 hora i 19 minuts, a les 15:50 UTC
Vent 7 kt del Sud/Sud-Oest
Temperatura 27°C
Humitat 94%
Pressió 1007 hPa
Visibilitat 10 km o més
Núvols disperses a una alçada de 3000 ft

METAR: OOSA 191550Z 20007KT 9999 SCT030 27/26 Q1007 NOSIG

Hora: 21:09 (17:09 UTC)

Pronòstic

L'informe es va fer fa 5 hores i 29 minuts, a les 11:40 UTC
Pronòstic vàlid del 19 a les 12 UTC al 20 a les 18 UTC
Vent 10 kt del Sud
Visibilitat 10 km o més
Escasses núvols a una alçada de 1800 ft
Cel ennuvolat a una alçada de 3000 ft
Evolucionant progressivament
l' 19 a les 16 UTC al 19 a les 18 UTC
Vent 3 kt amb direcció variable
Evolucionant progressivament
l' 20 a les 06 UTC al 20 a les 08 UTC
Vent 10 kt del Sud

TAF: OOSA 191140Z 1912/2018 19010KT 9999 FEW018 BKN030 BECMG 1916/1918 VRB03KT BECMG 2006/2008 19010KT

Observacions i pronòstics meteorològics de més de 4000 aeroports (METAR i TAF).

Les estacions disponibles són els punts grocs i vermells al mapa.

Posi el ratolí al punt desitjat per veure el nom de l'estació.

Feu clic per veure les observacions i els pronòstics meteorològics.

Per canviar el mapa: feu clic els botons verds amb una creu de color negre per apropar; al botó verd amb un guió per allunyar la imatge; o en les fletxes verdes per a mapes adjacents.


METAR-TAF: